sensor_id;sensor_type;location;lat;lon;timestamp;P1;durP1;ratioP1;P2;durP2;ratioP2
1877;SDS011;939;51.426;6.972;2023-11-18T05:53:15;13.65;;;5.85;;
1877;SDS011;939;51.426;6.972;2023-11-18T05:55:45;12.05;;;6.63;;
1877;SDS011;939;51.426;6.972;2023-11-18T05:58:19;10.55;;;6.40;;
1877;SDS011;939;51.426;6.972;2023-11-18T06:00:46;8.07;;;5.93;;
1877;SDS011;939;51.426;6.972;2023-11-18T06:03:13;10.30;;;5.75;;
1877;SDS011;939;51.426;6.972;2023-11-18T06:05:40;10.38;;;5.25;;
1877;SDS011;939;51.426;6.972;2023-11-18T06:08:09;8.73;;;6.90;;
1877;SDS011;939;51.426;6.972;2023-11-18T06:10:37;6.50;;;3.22;;
1877;SDS011;939;51.426;6.972;2023-11-18T06:13:12;4.60;;;3.65;;
1877;SDS011;939;51.426;6.972;2023-11-18T06:15:41;18.52;;;6.35;;
1877;SDS011;939;51.426;6.972;2023-11-18T06:18:11;9.35;;;5.65;;
1877;SDS011;939;51.426;6.972;2023-11-18T06:20:40;12.68;;;5.10;;
1877;SDS011;939;51.426;6.972;2023-11-18T06:23:24;8.73;;;4.60;;
1877;SDS011;939;51.426;6.972;2023-11-18T06:26:15;10.05;;;5.95;;
1877;SDS011;939;51.426;6.972;2023-11-18T06:28:48;6.68;;;3.85;;
1877;SDS011;939;51.426;6.972;2023-11-18T06:31:21;9.07;;;5.82;;
1877;SDS011;939;51.426;6.972;2023-11-18T06:33:52;9.50;;;5.07;;
1877;SDS011;939;51.426;6.972;2023-11-18T06:36:19;8.43;;;4.75;;
1877;SDS011;939;51.426;6.972;2023-11-18T06:38:49;6.47;;;3.50;;
1877;SDS011;939;51.426;6.972;2023-11-18T08:44:57;3.85;;;3.00;;
1877;SDS011;939;51.426;6.972;2023-11-18T08:47:39;13.48;;;3.88;;
1877;SDS011;939;51.426;6.972;2023-11-18T08:50:15;2.90;;;2.05;;
1877;SDS011;939;51.426;6.972;2023-11-18T08:53:00;4.40;;;2.90;;
1877;SDS011;939;51.426;6.972;2023-11-18T08:55:34;4.00;;;2.85;;
1877;SDS011;939;51.426;6.972;2023-11-18T08:58:25;4.82;;;3.78;;
1877;SDS011;939;51.426;6.972;2023-11-18T09:01:04;2.50;;;1.65;;
1877;SDS011;939;51.426;6.972;2023-11-18T09:03:40;5.15;;;3.58;;
1877;SDS011;939;51.426;6.972;2023-11-18T09:06:13;4.90;;;2.22;;
1877;SDS011;939;51.426;6.972;2023-11-18T09:08:44;4.32;;;2.88;;
1877;SDS011;939;51.426;6.972;2023-11-18T09:11:18;3.33;;;1.63;;
1877;SDS011;939;51.426;6.972;2023-11-18T09:13:49;4.75;;;2.67;;
1877;SDS011;939;51.426;6.972;2023-11-18T09:16:19;3.15;;;2.13;;
1877;SDS011;939;51.426;6.972;2023-11-18T09:18:47;2.22;;;1.83;;
1877;SDS011;939;51.426;6.972;2023-11-18T09:21:16;3.10;;;2.55;;
1877;SDS011;939;51.426;6.972;2023-11-18T09:23:48;2.33;;;1.55;;
1877;SDS011;939;51.426;6.972;2023-11-18T09:26:15;2.50;;;2.25;;
1877;SDS011;939;51.426;6.972;2023-11-18T09:28:42;4.53;;;3.88;;
1877;SDS011;939;51.426;6.972;2023-11-18T09:31:11;3.85;;;2.67;;
1877;SDS011;939;51.426;6.972;2023-11-18T09:33:39;5.95;;;3.83;;
1877;SDS011;939;51.426;6.972;2023-11-18T09:36:12;1.92;;;1.65;;
1877;SDS011;939;51.426;6.972;2023-11-18T09:38:39;7.57;;;2.58;;
1877;SDS011;939;51.426;6.972;2023-11-18T09:41:08;4.45;;;3.03;;
1877;SDS011;939;51.426;6.972;2023-11-18T09:43:40;2.72;;;2.20;;
1877;SDS011;939;51.426;6.972;2023-11-18T09:46:12;4.30;;;3.17;;
1877;SDS011;939;51.426;6.972;2023-11-18T09:48:43;2.97;;;2.10;;
1877;SDS011;939;51.426;6.972;2023-11-18T09:51:19;5.57;;;3.22;;
1877;SDS011;939;51.426;6.972;2023-11-18T09:53:57;2.60;;;2.05;;
1877;SDS011;939;51.426;6.972;2023-11-18T09:56:37;5.68;;;2.83;;
1877;SDS011;939;51.426;6.972;2023-11-18T09:59:14;3.20;;;2.08;;
1877;SDS011;939;51.426;6.972;2023-11-18T10:01:48;9.00;;;5.50;;
1877;SDS011;939;51.426;6.972;2023-11-18T10:04:19;4.97;;;2.55;;
1877;SDS011;939;51.426;6.972;2023-11-18T10:06:49;2.90;;;1.65;;
1877;SDS011;939;51.426;6.972;2023-11-18T10:09:18;2.10;;;1.88;;
1877;SDS011;939;51.426;6.972;2023-11-18T10:11:53;3.00;;;1.83;;
1877;SDS011;939;51.426;6.972;2023-11-18T10:14:30;4.22;;;2.35;;
1877;SDS011;939;51.426;6.972;2023-11-18T10:16:58;3.72;;;1.88;;
1877;SDS011;939;51.426;6.972;2023-11-18T10:22:21;3.65;;;2.20;;
1877;SDS011;939;51.426;6.972;2023-11-18T10:25:02;2.90;;;1.95;;
1877;SDS011;939;51.426;6.972;2023-11-18T10:27:31;6.68;;;3.15;;
1877;SDS011;939;51.426;6.972;2023-11-18T10:30:01;5.85;;;4.00;;
1877;SDS011;939;51.426;6.972;2023-11-18T10:32:30;6.30;;;5.45;;
1877;SDS011;939;51.426;6.972;2023-11-18T10:35:00;2.03;;;1.42;;
1877;SDS011;939;51.426;6.972;2023-11-18T10:37:44;2.63;;;2.30;;
1877;SDS011;939;51.426;6.972;2023-11-18T10:40:14;3.22;;;2.25;;
1877;SDS011;939;51.426;6.972;2023-11-18T10:42:41;5.55;;;2.83;;
1877;SDS011;939;51.426;6.972;2023-11-18T10:45:23;4.03;;;2.45;;
1877;SDS011;939;51.426;6.972;2023-11-18T10:47:53;2.65;;;2.28;;
1877;SDS011;939;51.426;6.972;2023-11-18T11:26:50;4.15;;;3.35;;
1877;SDS011;939;51.426;6.972;2023-11-18T11:29:30;3.80;;;2.70;;
1877;SDS011;939;51.426;6.972;2023-11-18T11:32:06;6.28;;;3.95;;
1877;SDS011;939;51.426;6.972;2023-11-18T11:34:48;2.60;;;2.40;;
1877;SDS011;939;51.426;6.972;2023-11-18T11:37:19;2.65;;;1.90;;
1877;SDS011;939;51.426;6.972;2023-11-18T11:39:52;21.83;;;2.35;;
1877;SDS011;939;51.426;6.972;2023-11-18T11:42:24;3.70;;;2.75;;
1877;SDS011;939;51.426;6.972;2023-11-18T11:44:54;4.25;;;2.30;;
1877;SDS011;939;51.426;6.972;2023-11-18T11:47:23;2.85;;;1.92;;
1877;SDS011;939;51.426;6.972;2023-11-18T11:49:55;11.90;;;2.28;;
1877;SDS011;939;51.426;6.972;2023-11-18T11:52:35;6.80;;;2.05;;
1877;SDS011;939;51.426;6.972;2023-11-18T11:55:15;5.35;;;1.90;;
1877;SDS011;939;51.426;6.972;2023-11-18T11:58:04;5.45;;;2.58;;
1877;SDS011;939;51.426;6.972;2023-11-18T13:51:55;2.30;;;1.73;;
1877;SDS011;939;51.426;6.972;2023-11-18T13:54:22;1.73;;;1.40;;
1877;SDS011;939;51.426;6.972;2023-11-18T13:56:50;2.28;;;1.88;;
1877;SDS011;939;51.426;6.972;2023-11-18T13:59:19;1.55;;;1.45;;
1877;SDS011;939;51.426;6.972;2023-11-18T14:01:49;1.92;;;1.50;;
1877;SDS011;939;51.426;6.972;2023-11-18T14:04:26;2.08;;;1.65;;
1877;SDS011;939;51.426;6.972;2023-11-18T14:07:08;1.73;;;1.50;;
1877;SDS011;939;51.426;6.972;2023-11-18T14:09:37;1.40;;;1.23;;
1877;SDS011;939;51.426;6.972;2023-11-18T14:12:05;1.48;;;1.38;;
1877;SDS011;939;51.426;6.972;2023-11-18T14:14:34;1.50;;;1.17;;
1877;SDS011;939;51.426;6.972;2023-11-18T14:17:02;1.58;;;1.00;;
1877;SDS011;939;51.426;6.972;2023-11-18T14:19:32;9.77;;;2.00;;
1877;SDS011;939;51.426;6.972;2023-11-18T14:22:00;2.83;;;2.30;;
1877;SDS011;939;51.426;6.972;2023-11-18T14:24:29;2.15;;;1.40;;
1877;SDS011;939;51.426;6.972;2023-11-18T14:26:57;2.17;;;1.63;;
1877;SDS011;939;51.426;6.972;2023-11-18T14:29:24;2.08;;;1.88;;
1877;SDS011;939;51.426;6.972;2023-11-18T14:31:52;1.20;;;0.93;;
1877;SDS011;939;51.426;6.972;2023-11-18T14:34:20;1.33;;;1.20;;
1877;SDS011;939;51.426;6.972;2023-11-18T14:36:49;2.67;;;1.85;;
1877;SDS011;939;51.426;6.972;2023-11-18T14:39:18;2.85;;;2.08;;
1877;SDS011;939;51.426;6.972;2023-11-18T14:41:52;1.40;;;1.05;;
1877;SDS011;939;51.426;6.972;2023-11-18T14:44:20;1.40;;;1.10;;
1877;SDS011;939;51.426;6.972;2023-11-18T14:47:01;1.42;;;1.25;;
1877;SDS011;939;51.426;6.972;2023-11-18T14:49:31;1.45;;;1.17;;
1877;SDS011;939;51.426;6.972;2023-11-18T14:51:59;2.58;;;1.30;;
1877;SDS011;939;51.426;6.972;2023-11-18T14:54:26;3.08;;;2.17;;
1877;SDS011;939;51.426;6.972;2023-11-18T14:57:00;1.63;;;0.90;;
1877;SDS011;939;51.426;6.972;2023-11-18T14:59:28;1.20;;;1.10;;
1877;SDS011;939;51.426;6.972;2023-11-18T15:01:55;3.35;;;2.50;;
1877;SDS011;939;51.426;6.972;2023-11-18T15:04:24;4.43;;;1.50;;
1877;SDS011;939;51.426;6.972;2023-11-18T15:06:52;2.30;;;1.52;;
1877;SDS011;939;51.426;6.972;2023-11-18T15:09:25;1.90;;;1.70;;
1877;SDS011;939;51.426;6.972;2023-11-18T15:11:56;1.92;;;1.80;;
1877;SDS011;939;51.426;6.972;2023-11-18T15:14:23;2.90;;;1.65;;
1877;SDS011;939;51.426;6.972;2023-11-18T15:16:50;1.88;;;1.65;;
1877;SDS011;939;51.426;6.972;2023-11-18T15:19:18;1.48;;;1.10;;
1877;SDS011;939;51.426;6.972;2023-11-18T15:21:45;2.60;;;2.30;;
1877;SDS011;939;51.426;6.972;2023-11-18T15:24:12;2.55;;;2.35;;
1877;SDS011;939;51.426;6.972;2023-11-18T15:26:40;4.60;;;1.30;;
1877;SDS011;939;51.426;6.972;2023-11-18T15:29:08;2.47;;;1.50;;
1877;SDS011;939;51.426;6.972;2023-11-18T15:31:39;1.40;;;1.10;;
1877;SDS011;939;51.426;6.972;2023-11-18T15:34:06;1.63;;;1.05;;
1877;SDS011;939;51.426;6.972;2023-11-18T15:36:33;1.75;;;1.65;;
1877;SDS011;939;51.426;6.972;2023-11-18T15:39:00;1.42;;;1.33;;
1877;SDS011;939;51.426;6.972;2023-11-18T15:41:33;2.05;;;1.85;;
1877;SDS011;939;51.426;6.972;2023-11-18T15:44:02;2.05;;;1.85;;
1877;SDS011;939;51.426;6.972;2023-11-18T15:46:35;3.45;;;2.10;;
1877;SDS011;939;51.426;6.972;2023-11-18T15:49:05;2.50;;;2.20;;
1877;SDS011;939;51.426;6.972;2023-11-18T15:51:32;1.80;;;1.42;;
1877;SDS011;939;51.426;6.972;2023-11-18T15:53:58;2.53;;;1.45;;
1877;SDS011;939;51.426;6.972;2023-11-18T15:56:25;4.00;;;2.13;;
1877;SDS011;939;51.426;6.972;2023-11-18T15:58:52;1.20;;;1.00;;
1877;SDS011;939;51.426;6.972;2023-11-18T16:01:21;1.08;;;0.85;;
1877;SDS011;939;51.426;6.972;2023-11-18T16:03:47;2.55;;;1.45;;
1877;SDS011;939;51.426;6.972;2023-11-18T16:06:15;5.18;;;1.48;;
1877;SDS011;939;51.426;6.972;2023-11-18T16:08:42;2.45;;;1.27;;
1877;SDS011;939;51.426;6.972;2023-11-18T16:11:11;3.55;;;1.58;;
1877;SDS011;939;51.426;6.972;2023-11-18T16:13:37;1.90;;;1.70;;
1877;SDS011;939;51.426;6.972;2023-11-18T16:16:04;1.30;;;1.00;;
1877;SDS011;939;51.426;6.972;2023-11-18T16:18:36;1.40;;;1.05;;
1877;SDS011;939;51.426;6.972;2023-11-18T16:21:04;1.75;;;1.05;;
1877;SDS011;939;51.426;6.972;2023-11-18T16:23:31;3.45;;;1.20;;
1877;SDS011;939;51.426;6.972;2023-11-18T16:26:00;4.03;;;2.55;;
1877;SDS011;939;51.426;6.972;2023-11-18T16:28:27;1.50;;;1.23;;
1877;SDS011;939;51.426;6.972;2023-11-18T16:30:54;1.60;;;1.50;;
1877;SDS011;939;51.426;6.972;2023-11-18T16:33:21;1.80;;;1.63;;
1877;SDS011;939;51.426;6.972;2023-11-18T16:35:50;2.50;;;1.73;;
1877;SDS011;939;51.426;6.972;2023-11-18T16:38:18;2.65;;;1.10;;
1877;SDS011;939;51.426;6.972;2023-11-18T16:40:44;1.42;;;1.10;;
1877;SDS011;939;51.426;6.972;2023-11-18T16:43:11;5.13;;;1.00;;
1877;SDS011;939;51.426;6.972;2023-11-18T16:45:39;2.72;;;1.90;;
1877;SDS011;939;51.426;6.972;2023-11-18T16:48:06;1.65;;;1.45;;
1877;SDS011;939;51.426;6.972;2023-11-18T16:50:33;1.30;;;1.08;;
1877;SDS011;939;51.426;6.972;2023-11-18T16:53:02;2.00;;;1.45;;
1877;SDS011;939;51.426;6.972;2023-11-18T16:55:29;1.73;;;1.15;;
1877;SDS011;939;51.426;6.972;2023-11-18T16:57:57;1.63;;;1.13;;
1877;SDS011;939;51.426;6.972;2023-11-18T17:00:24;1.30;;;1.10;;
1877;SDS011;939;51.426;6.972;2023-11-18T17:02:52;1.95;;;1.50;;
1877;SDS011;939;51.426;6.972;2023-11-18T17:05:21;1.10;;;0.90;;
1877;SDS011;939;51.426;6.972;2023-11-18T17:07:49;1.20;;;1.00;;
1877;SDS011;939;51.426;6.972;2023-11-18T17:10:19;2.45;;;1.10;;
1877;SDS011;939;51.426;6.972;2023-11-18T17:12:47;1.10;;;0.95;;
1877;SDS011;939;51.426;6.972;2023-11-18T17:15:15;2.40;;;1.95;;
1877;SDS011;939;51.426;6.972;2023-11-18T17:17:42;1.10;;;1.00;;
1877;SDS011;939;51.426;6.972;2023-11-18T21:52:27;1.40;;;1.00;;
1877;SDS011;939;51.426;6.972;2023-11-18T21:54:58;3.42;;;1.92;;
1877;SDS011;939;51.426;6.972;2023-11-18T21:57:25;1.70;;;1.25;;
1877;SDS011;939;51.426;6.972;2023-11-18T21:59:52;1.90;;;1.70;;
1877;SDS011;939;51.426;6.972;2023-11-18T22:02:19;2.72;;;1.50;;
1877;SDS011;939;51.426;6.972;2023-11-18T22:04:47;1.55;;;1.05;;
1877;SDS011;939;51.426;6.972;2023-11-18T22:07:14;1.33;;;1.17;;
1877;SDS011;939;51.426;6.972;2023-11-18T22:09:43;1.60;;;1.48;;
1877;SDS011;939;51.426;6.972;2023-11-18T22:12:12;1.95;;;1.10;;
1877;SDS011;939;51.426;6.972;2023-11-18T22:14:39;1.10;;;1.00;;
1877;SDS011;939;51.426;6.972;2023-11-18T22:17:07;1.60;;;1.30;;
1877;SDS011;939;51.426;6.972;2023-11-18T22:19:33;2.00;;;1.40;;
1877;SDS011;939;51.426;6.972;2023-11-18T22:22:00;1.58;;;1.48;;
1877;SDS011;939;51.426;6.972;2023-11-18T22:24:28;1.50;;;1.30;;
1877;SDS011;939;51.426;6.972;2023-11-18T22:26:56;1.88;;;1.35;;
1877;SDS011;939;51.426;6.972;2023-11-18T22:29:23;1.88;;;1.60;;
1877;SDS011;939;51.426;6.972;2023-11-18T22:31:50;1.50;;;1.40;;
1877;SDS011;939;51.426;6.972;2023-11-18T22:34:17;1.20;;;1.00;;
1877;SDS011;939;51.426;6.972;2023-11-18T22:36:44;1.38;;;1.10;;
1877;SDS011;939;51.426;6.972;2023-11-18T22:39:11;1.30;;;0.90;;
1877;SDS011;939;51.426;6.972;2023-11-18T22:41:39;2.08;;;1.73;;
1877;SDS011;939;51.426;6.972;2023-11-18T22:44:08;1.40;;;1.30;;
1877;SDS011;939;51.426;6.972;2023-11-18T22:46:35;2.65;;;1.65;;
1877;SDS011;939;51.426;6.972;2023-11-18T22:49:02;1.10;;;0.90;;
1877;SDS011;939;51.426;6.972;2023-11-18T22:51:31;1.48;;;1.05;;
1877;SDS011;939;51.426;6.972;2023-11-18T22:53:59;3.53;;;1.65;;
1877;SDS011;939;51.426;6.972;2023-11-18T22:56:26;2.75;;;1.60;;
1877;SDS011;939;51.426;6.972;2023-11-18T22:58:53;3.50;;;1.83;;
1877;SDS011;939;51.426;6.972;2023-11-18T23:01:21;1.73;;;1.25;;
1877;SDS011;939;51.426;6.972;2023-11-18T23:03:48;1.75;;;1.60;;
1877;SDS011;939;51.426;6.972;2023-11-18T23:06:16;2.55;;;1.38;;
1877;SDS011;939;51.426;6.972;2023-11-18T23:08:46;1.67;;;1.30;;
1877;SDS011;939;51.426;6.972;2023-11-18T23:11:13;3.03;;;1.60;;
1877;SDS011;939;51.426;6.972;2023-11-18T23:13:39;1.92;;;1.45;;
1877;SDS011;939;51.426;6.972;2023-11-18T23:16:07;1.30;;;1.10;;
1877;SDS011;939;51.426;6.972;2023-11-18T23:18:38;1.75;;;1.63;;
1877;SDS011;939;51.426;6.972;2023-11-18T23:21:05;1.55;;;1.17;;
1877;SDS011;939;51.426;6.972;2023-11-18T23:23:32;1.00;;;0.70;;
1877;SDS011;939;51.426;6.972;2023-11-18T23:26:00;1.30;;;1.20;;
1877;SDS011;939;51.426;6.972;2023-11-18T23:28:31;1.10;;;0.90;;
1877;SDS011;939;51.426;6.972;2023-11-18T23:30:58;1.38;;;1.27;;
1877;SDS011;939;51.426;6.972;2023-11-18T23:33:27;1.20;;;0.95;;
1877;SDS011;939;51.426;6.972;2023-11-18T23:35:56;1.52;;;1.20;;
1877;SDS011;939;51.426;6.972;2023-11-18T23:38:23;1.52;;;1.35;;
1877;SDS011;939;51.426;6.972;2023-11-18T23:40:51;2.10;;;1.70;;
1877;SDS011;939;51.426;6.972;2023-11-18T23:43:18;4.63;;;1.38;;
1877;SDS011;939;51.426;6.972;2023-11-18T23:45:45;1.57;;;1.30;;
1877;SDS011;939;51.426;6.972;2023-11-18T23:48:12;1.40;;;1.30;;
1877;SDS011;939;51.426;6.972;2023-11-18T23:50:40;2.23;;;1.77;;
1877;SDS011;939;51.426;6.972;2023-11-18T23:53:09;2.20;;;2.00;;
1877;SDS011;939;51.426;6.972;2023-11-18T23:55:36;4.03;;;1.40;;
1877;SDS011;939;51.426;6.972;2023-11-18T23:58:03;2.80;;;1.50;;
